Time;durP1;ratioP1;P1;durP2;ratioP2;P2;SDS_P1;SDS_P2;PMS_P1;PMS_P2;Temp;Humidity;BMP_temperature;BMP_pressure;BME280_temperature;BME280_humidity;BME280_pressure;Samples;Min_cycle;Max_cycle;Signal;HPM_P1;HPM_P2
2022/09/28 00:01:17;;;;;;;7.05;1.63;;;9.20;99.90;;;;;;5068006;28;20486;-68
2022/09/28 00:03:44;;;;;;;6.35;1.30;;;9.20;99.90;;;;;;5065834;28;20548;-67
2022/09/28 00:06:12;;;;;;;8.52;1.42;;;9.10;99.90;;;;;;5086024;28;20035;-67
2022/09/28 00:08:38;;;;;;;7.90;1.70;;;9.20;99.90;;;;;;5087173;28;20043;-67
2022/09/28 00:11:07;;;;;;;8.90;1.35;;;9.10;99.90;;;;;;5085787;28;20024;-68
2022/09/28 00:13:34;;;;;;;5.97;1.20;;;9.10;99.90;;;;;;5068839;28;20123;-68
2022/09/28 00:16:05;;;;;;;7.18;1.25;;;9.10;99.90;;;;;;5086519;28;20056;-68
2022/09/28 00:18:32;;;;;;;5.97;1.10;;;9.10;99.90;;;;;;5079836;28;20035;-67
2022/09/28 00:21:37;;;;;;;5.90;1.33;;;9.00;99.90;;;;;;5085888;28;20119;-68
2022/09/28 00:24:14;;;;;;;6.57;1.40;;;9.00;99.90;;;;;;5081690;28;20131;-68
2022/09/28 00:26:46;;;;;;;4.85;1.50;;;9.00;99.90;;;;;;5082073;28;20493;-67
2022/09/28 00:29:19;;;;;;;7.45;1.63;;;9.00;99.90;;;;;;5088067;28;20043;-67
2022/09/28 00:31:45;;;;;;;7.28;1.40;;;9.00;99.90;;;;;;5086550;28;20080;-67
2022/09/28 00:34:12;;;;;;;4.82;1.30;;;9.00;99.90;;;;;;5068252;28;20039;-67
2022/09/28 00:36:37;;;;;;;6.05;1.35;;;8.90;99.90;;;;;;5086453;28;20572;-67
2022/09/28 00:39:07;;;;;;;7.75;1.40;;;8.90;99.90;;;;;;5067574;28;20077;-68
2022/09/28 00:41:33;;;;;;;10.65;1.63;;;8.90;99.90;;;;;;5087541;28;20039;-67
2022/09/28 00:44:24;;;;;;;6.57;1.30;;;8.90;99.90;;;;;;5087399;28;20039;-67
2022/09/28 00:47:03;;;;;;;5.25;1.42;;;8.90;99.90;;;;;;5087642;28;20034;-67
2022/09/28 00:49:42;;;;;;;5.72;1.30;;;8.80;99.90;;;;;;5085278;28;20085;-68
2022/09/28 00:52:13;;;;;;;7.38;1.90;;;8.80;99.90;;;;;;5087257;28;20582;-67
2022/09/28 00:54:41;;;;;;;7.05;1.23;;;8.80;99.90;;;;;;5086178;28;20421;-68
2022/09/28 00:57:08;;;;;;;8.07;1.77;;;8.80;99.90;;;;;;5079168;28;20044;-68
2022/09/28 00:59:34;;;;;;;7.70;1.60;;;8.80;99.90;;;;;;5060899;28;20073;-68
2022/09/28 01:02:00;;;;;;;4.57;1.20;;;8.80;99.90;;;;;;5068711;28;20028;-67
2022/09/28 01:04:26;;;;;;;9.18;1.73;;;8.70;99.90;;;;;;5085230;28;20059;-69
2022/09/28 01:06:52;;;;;;;8.60;1.77;;;8.80;99.90;;;;;;5064413;28;20472;-67
2022/09/28 01:09:19;;;;;;;7.65;2.20;;;8.70;99.90;;;;;;5084587;28;20146;-67
2022/09/28 01:11:45;;;;;;;8.25;1.50;;;8.70;99.90;;;;;;5085775;28;20028;-67
2022/09/28 01:14:13;;;;;;;8.07;1.73;;;8.70;99.90;;;;;;5087925;28;20043;-67
2022/09/28 01:16:59;;;;;;;12.60;1.67;;;8.70;99.90;;;;;;5091739;28;20611;-67
2022/09/28 01:19:50;;;;;;;6.95;1.30;;;8.70;99.90;;;;;;5085598;28;20052;-67
2022/09/28 01:22:38;;;;;;;9.63;1.80;;;8.70;99.90;;;;;;5088006;28;20042;-67
2022/09/28 01:25:04;;;;;;;7.18;1.30;;;8.70;99.90;;;;;;5094878;28;20062;-67
2022/09/28 01:27:37;;;;;;;8.68;1.48;;;8.60;99.90;;;;;;5098508;28;20032;-67
2022/09/28 01:30:07;;;;;;;7.30;1.58;;;8.60;99.90;;;;;;5087695;28;20056;-67
2022/09/28 01:32:39;;;;;;;9.23;1.75;;;8.60;99.90;;;;;;5068844;28;20040;-67
2022/09/28 01:35:10;;;;;;;7.95;1.27;;;8.60;99.90;;;;;;5068344;28;20129;-67
2022/09/28 01:37:53;;;;;;;6.47;1.45;;;8.50;99.90;;;;;;5090516;28;20113;-67
2022/09/28 01:40:25;;;;;;;11.25;1.42;;;8.50;99.90;;;;;;5085239;28;20029;-67
2022/09/28 01:42:57;;;;;;;6.72;1.30;;;8.50;99.90;;;;;;5086702;28;20036;-67
2022/09/28 01:45:29;;;;;;;7.50;1.75;;;8.50;99.90;;;;;;5086917;28;20035;-68
2022/09/28 01:48:00;;;;;;;7.45;1.70;;;8.50;99.90;;;;;;5086584;28;20024;-69
2022/09/28 01:50:29;;;;;;;6.00;1.48;;;8.50;99.90;;;;;;5085730;28;20055;-68
2022/09/28 01:53:02;;;;;;;10.43;1.75;;;8.40;99.90;;;;;;5089735;28;20024;-68
2022/09/28 01:55:35;;;;;;;8.80;1.90;;;8.40;99.90;;;;;;5071170;28;20027;-67
2022/09/28 01:58:10;;;;;;;7.68;1.85;;;8.40;99.90;;;;;;5070211;28;20036;-68
2022/09/28 02:00:40;;;;;;;6.43;1.58;;;8.40;99.90;;;;;;5089854;28;20169;-67
2022/09/28 02:03:15;;;;;;;16.35;1.80;;;8.40;99.90;;;;;;5090462;28;20135;-67
2022/09/28 02:06:04;;;;;;;8.77;1.75;;;8.40;99.90;;;;;;5071486;28;20058;-67
2022/09/28 02:08:49;;;;;;;5.88;1.17;;;8.30;99.90;;;;;;5068297;28;20032;-69
2022/09/28 02:11:19;;;;;;;10.98;1.63;;;8.30;99.90;;;;;;5066288;28;20040;-67
2022/09/28 02:13:54;;;;;;;7.13;1.35;;;8.30;99.90;;;;;;5090561;28;20036;-67
2022/09/28 02:16:40;;;;;;;7.80;1.40;;;8.30;99.90;;;;;;5089713;28;20107;-67
2022/09/28 02:19:11;;;;;;;6.80;2.00;;;8.30;99.90;;;;;;5088237;28;20174;-67
2022/09/28 02:21:40;;;;;;;9.02;1.50;;;8.30;99.90;;;;;;5089758;28;20417;-67
2022/09/28 02:24:16;;;;;;;9.52;1.80;;;8.30;99.90;;;;;;5070847;28;20488;-67
2022/09/28 02:26:45;;;;;;;6.25;1.70;;;8.30;99.90;;;;;;5090000;28;20048;-67
2022/09/28 02:29:11;;;;;;;6.70;1.45;;;8.30;99.90;;;;;;5070632;28;20493;-68
2022/09/28 02:31:37;;;;;;;5.25;1.33;;;8.30;99.90;;;;;;5088321;28;20032;-67
2022/09/28 02:34:03;;;;;;;8.10;1.55;;;8.30;99.90;;;;;;5088280;28;20032;-67
2022/09/28 02:36:29;;;;;;;8.40;1.45;;;8.20;99.90;;;;;;5089636;28;20078;-67
2022/09/28 02:38:56;;;;;;;6.78;1.45;;;8.20;99.90;;;;;;5089205;28;20039;-67
2022/09/28 02:41:49;;;;;;;6.10;1.80;;;8.20;99.90;;;;;;5088360;28;20494;-67
2022/09/28 02:44:31;;;;;;;8.82;1.92;;;8.20;99.90;;;;;;5085193;28;20055;-66
2022/09/28 02:47:03;;;;;;;6.97;1.40;;;8.10;99.90;;;;;;5087395;28;20039;-67
2022/09/28 02:50:27;;;;;;;6.82;1.63;;;8.20;99.90;;;;;;5083054;28;20081;-67
2022/09/28 02:53:01;;;;;;;10.75;2.20;;;8.10;99.90;;;;;;4983245;28;20084;-67
2022/09/28 02:55:41;;;;;;;5.60;1.52;;;8.10;99.90;;;;;;4986413;28;20137;-67
2022/09/28 02:58:12;;;;;;;8.18;1.95;;;8.10;99.90;;;;;;4987647;28;20133;-67
2022/09/28 03:00:54;;;;;;;11.15;1.40;;;8.10;99.90;;;;;;4986356;28;20050;-68
2022/09/28 03:03:29;;;;;;;9.32;1.75;;;8.10;99.90;;;;;;4986690;28;20038;-67
2022/09/28 03:06:08;;;;;;;11.65;2.17;;;8.10;99.90;;;;;;4983522;28;20034;-67
2022/09/28 03:09:06;;;;;;;11.02;2.10;;;8.10;99.90;;;;;;4985406;28;20120;-67
2022/09/28 03:11:45;;;;;;;7.32;1.52;;;8.00;99.90;;;;;;4978713;28;20046;-66
2022/09/28 03:14:12;;;;;;;7.68;1.38;;;8.00;99.90;;;;;;4978832;28;20491;-68
2022/09/28 03:16:42;;;;;;;9.55;1.45;;;8.00;99.90;;;;;;4983170;28;20129;-68
2022/09/28 03:19:08;;;;;;;8.35;2.10;;;8.00;99.90;;;;;;4969869;28;20926;-67
2022/09/28 03:21:34;;;;;;;9.00;1.67;;;8.00;99.90;;;;;;4986239;28;20635;-66
2022/09/28 03:23:59;;;;;;;9.00;1.90;;;8.00;99.90;;;;;;4985960;28;20865;-67
2022/09/28 03:26:25;;;;;;;9.13;2.13;;;7.90;99.90;;;;;;4982135;28;20073;-68
2022/09/28 03:28:51;;;;;;;10.23;2.05;;;7.90;99.90;;;;;;5010508;28;20045;-68
2022/09/28 03:31:16;;;;;;;8.48;1.40;;;7.90;99.90;;;;;;5086991;28;20089;-67
2022/09/28 03:33:42;;;;;;;6.22;1.48;;;7.80;99.90;;;;;;5070378;28;20028;-67
2022/09/28 03:36:08;;;;;;;6.82;1.50;;;7.80;99.90;;;;;;5087357;28;20116;-67
2022/09/28 03:38:34;;;;;;;9.25;1.40;;;7.80;99.90;;;;;;5087981;28;20464;-67
2022/09/28 03:40:59;;;;;;;11.93;1.77;;;7.80;99.90;;;;;;5089176;28;20040;-67
2022/09/28 03:43:26;;;;;;;8.35;1.55;;;7.80;99.90;;;;;;5089102;28;20031;-67
2022/09/28 03:45:59;;;;;;;19.80;2.10;;;7.80;99.90;;;;;;5086141;28;20106;-68
2022/09/28 03:48:27;;;;;;;7.68;1.48;;;7.70;99.90;;;;;;5087852;28;20043;-66
2022/09/28 03:50:57;;;;;;;11.38;1.60;;;7.80;99.90;;;;;;5087298;28;20043;-69
2022/09/28 03:53:23;;;;;;;5.90;1.50;;;7.80;99.90;;;;;;5087917;28;20519;-67
2022/09/28 03:55:51;;;;;;;8.75;1.98;;;7.70;99.90;;;;;;5087978;28;20035;-68
2022/09/28 03:58:21;;;;;;;8.35;1.67;;;7.70;99.90;;;;;;5087917;28;20035;-67
2022/09/28 04:00:48;;;;;;;9.23;1.92;;;7.70;99.90;;;;;;5086548;28;20040;-67
2022/09/28 04:03:13;;;;;;;8.20;1.90;;;7.70;99.90;;;;;;5087552;28;20064;-68
2022/09/28 04:05:47;;;;;;;9.80;1.88;;;7.70;99.90;;;;;;5067653;28;20060;-67
2022/09/28 04:08:12;;;;;;;9.55;1.63;;;7.70;99.90;;;;;;5085771;28;20059;-67
2022/09/28 04:10:38;;;;;;;7.80;1.85;;;7.70;99.90;;;;;;5088251;28;20056;-67
2022/09/28 04:13:03;;;;;;;8.57;1.50;;;7.60;99.90;;;;;;5086332;28;20040;-68
2022/09/28 04:15:29;;;;;;;9.30;2.15;;;7.60;99.90;;;;;;5086312;28;20035;-68
2022/09/28 04:17:55;;;;;;;9.18;1.90;;;7.60;99.90;;;;;;5085724;28;20107;-67
2022/09/28 04:20:20;;;;;;;8.70;1.83;;;7.60;99.90;;;;;;5085990;28;20400;-66
2022/09/28 04:22:46;;;;;;;8.35;1.95;;;7.60;99.90;;;;;;5087996;28;20028;-67
2022/09/28 04:25:12;;;;;;;10.75;1.90;;;7.60;99.90;;;;;;5087724;28;20083;-67
2022/09/28 04:30:22;;;;;;;10.50;1.88;;;7.60;99.90;;;;;;5084723;28;20039;-67
2022/09/28 04:32:47;;;;;;;12.50;2.03;;;7.60;99.90;;;;;;5088406;28;20036;-68
2022/09/28 04:35:13;;;;;;;8.68;2.00;;;7.60;99.90;;;;;;5085536;28;20038;-68
2022/09/28 04:37:40;;;;;;;8.15;2.05;;;7.60;99.90;;;;;;5087719;28;20036;-68
2022/09/28 04:40:06;;;;;;;9.85;1.88;;;7.60;99.90;;;;;;5086224;28;20098;-67
2022/09/28 04:42:32;;;;;;;11.48;2.05;;;7.60;99.90;;;;;;5086434;28;20848;-67
2022/09/28 04:44:59;;;;;;;10.05;1.90;;;7.50;99.90;;;;;;5087462;28;20036;-68
2022/09/28 04:47:26;;;;;;;9.18;2.15;;;7.60;99.90;;;;;;5086400;28;20024;-68
2022/09/28 04:49:51;;;;;;;6.93;1.70;;;7.60;99.90;;;;;;5086494;28;20074;-68
2022/09/28 04:52:17;;;;;;;8.63;1.40;;;7.50;99.90;;;;;;5086671;28;20863;-67
2022/09/28 04:54:43;;;;;;;9.55;2.05;;;7.50;99.90;;;;;;5087006;28;20084;-67
2022/09/28 04:57:08;;;;;;;7.88;1.90;;;7.50;99.90;;;;;;5085836;28;20103;-67
2022/09/28 04:59:35;;;;;;;6.47;1.65;;;7.50;99.90;;;;;;5085201;28;20032;-68
2022/09/28 05:02:01;;;;;;;9.00;1.65;;;7.50;99.90;;;;;;5086370;28;20036;-67
2022/09/28 05:04:27;;;;;;;9.57;1.98;;;7.50;99.90;;;;;;5087053;28;20043;-67
2022/09/28 05:06:52;;;;;;;7.28;1.77;;;7.50;99.90;;;;;;5068804;28;20540;-67
2022/09/28 05:09:18;;;;;;;5.80;1.50;;;7.50;99.90;;;;;;5084264;28;20090;-67
2022/09/28 05:11:44;;;;;;;8.70;1.63;;;7.50;99.90;;;;;;5087861;28;20067;-67
2022/09/28 05:14:10;;;;;;;9.68;1.63;;;7.50;99.90;;;;;;5087797;28;20031;-67
2022/09/28 05:16:36;;;;;;;14.27;1.92;;;7.50;99.90;;;;;;5068991;28;20032;-68
2022/09/28 05:19:01;;;;;;;9.02;1.75;;;7.50;99.90;;;;;;5087181;28;20035;-68
2022/09/28 05:21:28;;;;;;;8.68;1.60;;;7.50;99.90;;;;;;5086233;28;20040;-69
2022/09/28 05:23:55;;;;;;;8.35;1.83;;;7.50;99.90;;;;;;5068731;28;20050;-67
2022/09/28 05:26:21;;;;;;;8.82;2.03;;;7.40;99.90;;;;;;5089066;28;20044;-67
2022/09/28 05:28:47;;;;;;;9.00;2.10;;;7.50;99.90;;;;;;5091470;28;20024;-67
2022/09/28 05:31:13;;;;;;;10.20;1.55;;;7.50;99.90;;;;;;5073391;28;20043;-67
2022/09/28 05:33:39;;;;;;;6.75;1.85;;;7.50;99.90;;;;;;5091667;28;20375;-67
2022/09/28 05:36:09;;;;;;;8.48;1.73;;;7.40;99.90;;;;;;5091864;28;20097;-67
2022/09/28 05:38:35;;;;;;;11.60;2.05;;;7.40;99.90;;;;;;5078284;28;20024;-68
2022/09/28 05:41:01;;;;;;;6.43;2.08;;;7.40;99.90;;;;;;5090522;28;20155;-69
2022/09/28 05:43:27;;;;;;;15.00;2.30;;;7.40;99.90;;;;;;5074937;28;20466;-67
2022/09/28 05:45:52;;;;;;;8.50;1.60;;;7.40;99.90;;;;;;5095381;28;20533;-68
2022/09/28 05:48:18;;;;;;;10.88;2.08;;;7.40;99.90;;;;;;5089670;28;20031;-66
2022/09/28 05:50:43;;;;;;;7.78;1.83;;;7.40;99.90;;;;;;5088970;28;20039;-68
2022/09/28 05:53:09;;;;;;;9.05;1.60;;;7.40;99.90;;;;;;5089280;28;20055;-68
2022/09/28 05:55:36;;;;;;;11.70;2.05;;;7.40;99.90;;;;;;5089886;28;20028;-66
2022/09/28 05:58:04;;;;;;;8.82;1.60;;;7.40;99.90;;;;;;5072723;28;20509;-67
2022/09/28 06:00:31;;;;;;;8.23;2.03;;;7.40;99.90;;;;;;5060636;28;20039;-68
2022/09/28 06:03:03;;;;;;;8.55;1.98;;;7.40;99.90;;;;;;5065986;28;20086;-66
2022/09/28 06:05:30;;;;;;;6.18;1.52;;;7.40;99.90;;;;;;5087255;28;20032;-66
2022/09/28 06:07:56;;;;;;;8.38;1.75;;;7.40;99.90;;;;;;5091051;28;20040;-67
2022/09/28 06:10:23;;;;;;;8.50;2.63;;;7.40;99.90;;;;;;5069407;28;20462;-66
2022/09/28 06:12:56;;;;;;;10.20;1.77;;;7.30;99.90;;;;;;5090467;28;20040;-66
2022/09/28 06:15:24;;;;;;;8.98;2.58;;;7.40;99.90;;;;;;5088237;28;20032;-66
2022/09/28 06:18:00;;;;;;;5.88;1.50;;;7.40;99.90;;;;;;5078699;28;20486;-66
2022/09/28 06:20:30;;;;;;;10.93;1.98;;;7.40;99.90;;;;;;5092007;28;20023;-67
2022/09/28 06:22:55;;;;;;;5.27;1.33;;;7.40;99.90;;;;;;5089499;28;20036;-67
2022/09/28 06:25:22;;;;;;;9.38;1.73;;;7.40;99.90;;;;;;5090945;28;20284;-66
2022/09/28 06:28:03;;;;;;;9.65;1.75;;;7.40;99.90;;;;;;5088153;28;20032;-66
2022/09/28 06:30:30;;;;;;;8.15;1.40;;;7.40;99.90;;;;;;5067986;28;20068;-66
2022/09/28 06:32:57;;;;;;;8.02;1.73;;;7.50;99.90;;;;;;5084670;28;20062;-65
2022/09/28 06:35:24;;;;;;;10.13;1.70;;;7.50;99.90;;;;;;5086852;28;20093;-66
2022/09/28 06:37:51;;;;;;;8.27;1.65;;;7.50;99.90;;;;;;5084850;28;20024;-67
2022/09/28 06:40:17;;;;;;;9.02;1.80;;;7.50;99.90;;;;;;5087840;28;20111;-66
2022/09/28 06:42:43;;;;;;;9.50;1.80;;;7.60;99.90;;;;;;5084593;28;20039;-67
2022/09/28 06:45:09;;;;;;;7.50;1.60;;;7.60;99.90;;;;;;5089193;28;20527;-66
2022/09/28 06:47:36;;;;;;;6.15;1.33;;;7.60;99.90;;;;;;5084388;28;20469;-67
2022/09/28 06:50:06;;;;;;;6.65;1.60;;;7.70;99.90;;;;;;5089588;28;20035;-66
2022/09/28 06:52:32;;;;;;;7.07;1.70;;;7.70;99.90;;;;;;5089647;28;20039;-66
2022/09/28 06:54:58;;;;;;;7.38;1.75;;;7.70;99.90;;;;;;5089409;28;20032;-66
2022/09/28 06:57:23;;;;;;;12.02;1.95;;;7.70;99.90;;;;;;5089598;28;20036;-66
2022/09/28 06:59:49;;;;;;;7.43;1.80;;;7.80;99.90;;;;;;5089265;28;20119;-66
2022/09/28 07:02:14;;;;;;;9.07;1.65;;;7.80;99.90;;;;;;5088041;28;20031;-66
2022/09/28 07:04:41;;;;;;;7.78;1.50;;;7.80;99.90;;;;;;5096776;28;20078;-66
2022/09/28 07:07:10;;;;;;;8.82;1.60;;;7.90;99.90;;;;;;5079706;28;20024;-66
2022/09/28 07:09:36;;;;;;;6.78;1.20;;;8.00;99.90;;;;;;5070513;28;20039;-67
2022/09/28 07:12:08;;;;;;;7.93;1.42;;;8.10;99.90;;;;;;5086771;28;20066;-66
2022/09/28 07:14:34;;;;;;;9.30;1.88;;;8.10;99.90;;;;;;5091233;28;20123;-67
2022/09/28 07:17:01;;;;;;;7.22;1.15;;;8.20;99.90;;;;;;5065992;28;20131;-66
2022/09/28 07:19:26;;;;;;;7.88;1.60;;;8.30;99.90;;;;;;5081199;28;20090;-66
2022/09/28 07:21:52;;;;;;;7.93;1.60;;;8.40;99.90;;;;;;5085297;28;20032;-67
2022/09/28 07:24:18;;;;;;;8.77;3.72;;;8.50;99.90;;;;;;5089282;28;20032;-66
2022/09/28 07:26:44;;;;;;;14.65;5.60;;;8.50;99.90;;;;;;5070654;28;20059;-67
2022/09/28 07:29:10;;;;;;;7.47;3.17;;;8.50;99.90;;;;;;5071155;28;20126;-66
2022/09/28 07:31:36;;;;;;;9.77;1.95;;;8.60;99.90;;;;;;5071190;28;20037;-66
2022/09/28 07:34:02;;;;;;;8.02;1.95;;;8.60;99.90;;;;;;5070728;28;20101;-67
2022/09/28 07:36:29;;;;;;;10.55;1.80;;;8.70;99.90;;;;;;5089364;28;20093;-66
2022/09/28 07:38:54;;;;;;;8.23;2.05;;;8.70;99.90;;;;;;5089266;28;20098;-66
2022/09/28 07:41:31;;;;;;;5.90;1.70;;;8.90;99.90;;;;;;5088526;28;20455;-66
2022/09/28 07:43:58;;;;;;;6.82;1.50;;;8.90;99.90;;;;;;5071165;28;20055;-66
2022/09/28 07:46:23;;;;;;;7.25;1.60;;;8.90;99.90;;;;;;5070856;28;20035;-66
2022/09/28 07:48:50;;;;;;;8.88;2.00;;;9.00;99.90;;;;;;5091280;28;20036;-67
2022/09/28 07:51:18;;;;;;;6.05;1.70;;;9.10;99.90;;;;;;5070806;28;20114;-67
2022/09/28 07:53:44;;;;;;;5.63;1.50;;;9.20;99.90;;;;;;5086991;28;20039;-67
2022/09/28 07:56:10;;;;;;;7.32;1.77;;;9.20;99.90;;;;;;5069489;28;20055;-66
2022/09/28 07:58:37;;;;;;;5.38;1.55;;;9.30;99.90;;;;;;5070432;28;20043;-67
2022/09/28 08:01:09;;;;;;;9.82;1.60;;;9.30;99.90;;;;;;5088422;28;20136;-66
2022/09/28 08:03:35;;;;;;;9.63;1.67;;;9.40;99.90;;;;;;5088752;28;20036;-67
2022/09/28 08:06:05;;;;;;;9.13;1.73;;;9.50;99.90;;;;;;5088395;28;20393;-67
2022/09/28 08:08:34;;;;;;;;;;;9.70;99.90;;;;;;5084029;28;20055;-67
2022/09/28 08:11:01;;;;;;;7.25;1.60;;;9.80;99.90;;;;;;5083061;28;19911;-67
2022/09/28 08:13:26;;;;;;;9.98;1.85;;;9.80;99.90;;;;;;5070002;28;20098;-67
2022/09/28 08:15:53;;;;;;;7.07;1.52;;;9.90;99.90;;;;;;5088431;28;20044;-66
2022/09/28 08:18:19;;;;;;;8.02;1.63;;;10.00;99.90;;;;;;5088218;28;20093;-67
2022/09/28 08:23:29;;;;;;;7.25;1.85;;;10.20;99.90;;;;;;5088542;28;20043;-67
2022/09/28 08:25:54;;;;;;;7.53;1.83;;;10.30;99.90;;;;;;5088203;28;20052;-67
2022/09/28 08:28:21;;;;;;;7.95;1.90;;;10.40;99.90;;;;;;5070478;28;20036;-67
2022/09/28 08:30:48;;;;;;;6.82;2.00;;;10.60;99.90;;;;;;5087149;28;20089;-68
2022/09/28 08:33:16;;;;;;;8.73;2.35;;;10.80;99.90;;;;;;5088486;28;20032;-68
2022/09/28 08:35:43;;;;;;;11.38;2.25;;;10.80;99.90;;;;;;5088388;28;20071;-66
2022/09/28 08:38:09;;;;;;;9.35;2.00;;;10.90;99.90;;;;;;5070231;28;20101;-67
2022/09/28 08:41:03;;;;;;;9.73;1.90;;;10.90;99.90;;;;;;5088364;28;20475;-67
2022/09/28 08:44:07;;;;;;;6.97;1.90;;;10.90;99.90;;;;;;5050523;28;20067;-66
2022/09/28 08:46:38;;;;;;;7.10;2.38;;;11.00;99.90;;;;;;5088283;28;20078;-66
2022/09/28 08:49:09;;;;;;;5.88;2.00;;;11.10;99.90;;;;;;5069716;28;20119;-67
2022/09/28 08:51:46;;;;;;;7.97;2.63;;;11.10;99.90;;;;;;5088278;28;20047;-67
2022/09/28 08:54:27;;;;;;;8.85;2.40;;;11.20;99.90;;;;;;5088593;28;20059;-68
2022/09/28 08:57:10;;;;;;;7.05;1.88;;;11.40;99.90;;;;;;5088269;28;20042;-67
2022/09/28 08:59:57;;;;;;;6.80;2.05;;;11.40;99.90;;;;;;5088349;28;20040;-68
2022/09/28 09:02:32;;;;;;;7.88;1.90;;;11.50;99.90;;;;;;5088220;28;20035;-67
2022/09/28 09:05:03;;;;;;;5.65;1.60;;;11.60;99.90;;;;;;5088155;28;20036;-67
2022/09/28 09:07:50;;;;;;;8.27;1.70;;;11.70;99.90;;;;;;5087956;28;20530;-67
2022/09/28 09:10:43;;;;;;;6.15;1.52;;;11.80;99.90;;;;;;5067125;28;20123;-67
2022/09/28 09:13:30;;;;;;;8.25;1.70;;;11.90;99.90;;;;;;5068008;28;20486;-68
2022/09/28 09:16:20;;;;;;;6.63;2.00;;;12.00;99.90;;;;;;5067908;28;20029;-67
2022/09/28 09:18:53;;;;;;;7.75;1.50;;;12.10;99.90;;;;;;5049788;28;20435;-67
2022/09/28 09:21:40;;;;;;;5.95;1.40;;;12.20;99.90;;;;;;5067928;28;20589;-67
2022/09/28 09:24:17;;;;;;;9.52;2.55;;;12.30;99.90;;;;;;5067739;28;20559;-67
2022/09/28 09:26:43;;;;;;;6.32;1.77;;;12.40;99.90;;;;;;5072612;28;20052;-66
2022/09/28 09:29:27;;;;;;;6.72;1.48;;;12.40;99.90;;;;;;5088246;28;20036;-68
2022/09/28 09:32:18;;;;;;;6.40;1.40;;;12.40;99.90;;;;;;5087926;28;20032;-67
2022/09/28 09:34:52;;;;;;;5.25;1.55;;;12.40;99.90;;;;;;5069595;28;20032;-66
2022/09/28 09:37:27;;;;;;;8.95;1.67;;;12.40;99.90;;;;;;5090923;28;20127;-67
2022/09/28 09:40:27;;;;;;;5.68;1.80;;;12.50;99.90;;;;;;5087817;28;20070;-67
2022/09/28 09:43:16;;;;;;;4.18;1.40;;;12.60;99.90;;;;;;5069291;28;20045;-68
2022/09/28 09:46:00;;;;;;;8.32;1.70;;;12.70;99.90;;;;;;5076773;28;20055;-68
2022/09/28 09:48:33;;;;;;;9.23;1.58;;;13.00;99.90;;;;;;5066694;28;20056;-67
2022/09/28 09:51:22;;;;;;;5.20;1.20;;;13.10;99.90;;;;;;5077367;28;20121;-67
2022/09/28 09:53:58;;;;;;;7.25;1.52;;;13.30;99.90;;;;;;5079441;28;20043;-68
2022/09/28 09:56:33;;;;;;;8.35;1.77;;;13.50;99.90;;;;;;5073608;28;20032;-67
2022/09/28 09:59:06;;;;;;;5.70;1.08;;;13.60;99.90;;;;;;5076220;28;20098;-69
2022/09/28 10:01:36;;;;;;;7.53;1.58;;;13.60;99.90;;;;;;5084398;28;20039;-69
2022/09/28 10:04:06;;;;;;;5.40;1.40;;;13.60;99.90;;;;;;5072572;28;20104;-68
2022/09/28 10:06:36;;;;;;;8.35;1.40;;;13.80;99.90;;;;;;5081368;28;20028;-69
2022/09/28 10:09:22;;;;;;;7.07;1.55;;;13.90;99.90;;;;;;5071850;28;20043;-69
2022/09/28 10:11:49;;;;;;;6.18;1.25;;;14.10;99.90;;;;;;5077823;28;20055;-69
2022/09/28 10:14:20;;;;;;;4.50;1.30;;;14.70;99.90;;;;;;5085450;28;20134;-69
2022/09/28 10:16:48;;;;;;;6.80;1.55;;;14.70;99.90;;;;;;5070777;28;20031;-68
2022/09/28 10:19:15;;;;;;;6.05;1.35;;;14.60;99.90;;;;;;5081118;28;20033;-69
2022/09/28 10:21:42;;;;;;;6.07;1.23;;;14.60;99.90;;;;;;5081837;28;20043;-68
2022/09/28 10:24:37;;;;;;;3.83;1.10;;;14.50;99.90;;;;;;5076215;28;20036;-69
2022/09/28 10:27:34;;;;;;;5.65;1.60;;;14.30;99.90;;;;;;5070751;28;20603;-69
2022/09/28 10:30:09;;;;;;;5.30;1.13;;;14.30;99.90;;;;;;5054793;28;20044;-69
2022/09/28 10:32:40;;;;;;;7.18;1.38;;;14.30;99.90;;;;;;5072930;28;20040;-69
2022/09/28 10:35:17;;;;;;;4.72;1.33;;;14.30;99.90;;;;;;5071348;28;20465;-69
2022/09/28 10:37:56;;;;;;;5.38;1.20;;;14.30;99.90;;;;;;5080812;28;20036;-69
2022/09/28 10:40:54;;;;;;;3.13;1.00;;;14.40;99.90;;;;;;5062342;28;20067;-69
2022/09/28 10:43:34;;;;;;;4.50;0.85;;;14.30;99.90;;;;;;5072166;28;20033;-69
2022/09/28 10:46:09;;;;;;;5.82;0.90;;;14.30;99.90;;;;;;5071020;28;20098;-69
2022/09/28 10:49:16;;;;;;;4.78;0.80;;;14.50;99.90;;;;;;5074185;28;20032;-70
2022/09/28 10:51:48;;;;;;;3.22;0.80;;;14.70;99.80;;;;;;5061094;28;20044;-69
2022/09/28 10:54:23;;;;;;;4.63;0.93;;;14.70;98.80;;;;;;5071341;28;20382;-68
2022/09/28 10:56:50;;;;;;;3.25;0.70;;;15.10;99.40;;;;;;5074744;28;20474;-69
2022/09/28 10:59:28;;;;;;;4.72;1.05;;;15.80;95.50;;;;;;5064506;28;20457;-68
2022/09/28 11:02:17;;;;;;;2.30;0.73;;;17.00;91.70;;;;;;5070296;28;20044;-68
2022/09/28 11:04:51;;;;;;;5.63;1.10;;;16.70;90.70;;;;;;5069391;28;20040;-68
2022/09/28 11:07:18;;;;;;;4.25;0.80;;;16.10;91.50;;;;;;5074873;28;20039;-68
2022/09/28 11:09:48;;;;;;;6.45;1.02;;;15.70;92.40;;;;;;5072513;28;20037;-67
2022/09/28 11:12:17;;;;;;;4.72;0.82;;;15.20;92.50;;;;;;5070860;28;20063;-67
2022/09/28 11:14:43;;;;;;;5.35;1.00;;;14.90;93.00;;;;;;5069336;28;20064;-67
2022/09/28 11:17:26;;;;;;;2.78;0.82;;;14.50;94.10;;;;;;5076241;28;20036;-67
2022/09/28 11:19:53;;;;;;;2.38;0.80;;;14.20;95.80;;;;;;5077795;28;20478;-67
2022/09/28 11:22:25;;;;;;;2.35;0.60;;;14.10;95.90;;;;;;5072644;28;20048;-67
2022/09/28 11:24:51;;;;;;;4.07;0.80;;;13.90;94.30;;;;;;5063251;28;20061;-68
2022/09/28 11:27:25;;;;;;;2.55;0.80;;;13.70;94.90;;;;;;5076597;28;20515;-68
2022/09/28 11:29:57;;;;;;;5.10;1.13;;;13.60;95.60;;;;;;5077275;28;20589;-67
2022/09/28 11:32:38;;;;;;;5.30;1.02;;;13.50;97.40;;;;;;5073637;28;20040;-67
2022/09/28 11:35:04;;;;;;;1.98;0.80;;;13.40;98.60;;;;;;5073030;28;20052;-67
2022/09/28 11:37:43;;;;;;;5.50;1.00;;;13.40;98.10;;;;;;5071809;28;20052;-67
2022/09/28 11:40:14;;;;;;;3.92;0.98;;;13.30;98.90;;;;;;5075636;28;20090;-67
2022/09/28 11:42:53;;;;;;;3.83;1.00;;;13.30;98.20;;;;;;5080582;28;20760;-68
2022/09/28 11:45:35;;;;;;;4.85;0.63;;;13.40;98.80;;;;;;5070435;28;20077;-67
2022/09/28 11:48:06;;;;;;;2.65;0.73;;;13.70;97.90;;;;;;5077503;28;20505;-68
2022/09/28 11:50:55;;;;;;;3.30;0.70;;;13.90;96.40;;;;;;5072153;28;20134;-67
2022/09/28 11:53:47;;;;;;;3.53;0.77;;;13.90;95.70;;;;;;5066782;28;20028;-68
2022/09/28 11:56:31;;;;;;;4.38;0.98;;;13.90;95.70;;;;;;5078058;28;20277;-69
2022/09/28 11:59:04;;;;;;;5.38;1.00;;;13.80;95.30;;;;;;5087653;28;20036;-68
2022/09/28 12:01:39;;;;;;;2.65;0.80;;;14.00;97.10;;;;;;5089020;28;20043;-70
2022/09/28 12:04:24;;;;;;;4.10;0.70;;;14.30;94.70;;;;;;5078659;28;20021;-67
2022/09/28 12:06:55;;;;;;;5.05;0.90;;;14.40;92.80;;;;;;5062606;28;20048;-69
2022/09/28 12:09:30;;;;;;;5.40;0.80;;;14.40;92.40;;;;;;5073596;28;20016;-68
2022/09/28 12:12:01;;;;;;;2.20;0.70;;;14.40;92.60;;;;;;5073684;28;20043;-68
2022/09/28 12:14:37;;;;;;;1.40;0.50;;;14.60;92.30;;;;;;5072830;28;20021;-70
2022/09/28 12:17:15;;;;;;;1.98;0.70;;;15.30;91.40;;;;;;5080113;28;20024;-69
2022/09/28 12:19:54;;;;;;;2.72;0.70;;;15.40;89.00;;;;;;5067687;28;20103;-68
2022/09/28 12:22:36;;;;;;;3.38;0.70;;;15.40;87.10;;;;;;5069625;28;20045;-69
2022/09/28 12:25:09;;;;;;;4.28;0.80;;;15.40;87.00;;;;;;5079224;28;20055;-69
2022/09/28 12:27:42;;;;;;;2.35;0.60;;;16.00;88.20;;;;;;5061012;28;20548;-68
2022/09/28 12:30:18;;;;;;;2.60;0.68;;;16.50;82.80;;;;;;5056506;28;20032;-69
2022/09/28 12:33:14;;;;;;;3.65;0.88;;;16.50;82.90;;;;;;5073051;28;20035;-68
2022/09/28 12:36:25;;;;;;;1.58;0.68;;;16.30;80.40;;;;;;5086314;28;20032;-69
2022/09/28 12:39:21;;;;;;;2.72;0.80;;;16.10;79.90;;;;;;5075729;28;20394;-69
2022/09/28 12:42:08;;;;;;;2.08;0.63;;;15.90;79.60;;;;;;5067588;28;20043;-69
2022/09/28 12:44:44;;;;;;;3.40;0.80;;;15.70;79.80;;;;;;5070734;28;20439;-69
2022/09/28 12:47:40;;;;;;;2.78;0.70;;;15.60;81.60;;;;;;5077990;28;20106;-67
2022/09/28 12:50:26;;;;;;;2.38;0.70;;;15.70;80.00;;;;;;5067318;28;20037;-69
2022/09/28 12:53:22;;;;;;;2.75;0.70;;;15.80;80.90;;;;;;5072908;28;20178;-69
2022/09/28 12:56:29;;;;;;;2.08;0.60;;;15.90;78.10;;;;;;5058778;28;20435;-70
2022/09/28 12:59:17;;;;;;;2.20;0.50;;;16.10;79.20;;;;;;5064758;28;20490;-68
2022/09/28 13:02:06;;;;;;;4.05;0.65;;;15.90;72.90;;;;;;5074554;28;20123;-69
2022/09/28 13:05:04;;;;;;;3.25;1.05;;;15.70;70.90;;;;;;5073608;28;20051;-68
2022/09/28 13:07:54;;;;;;;4.00;0.70;;;15.40;75.40;;;;;;5052369;28;20036;-68
2022/09/28 13:10:41;;;;;;;2.90;0.75;;;15.30;76.20;;;;;;5078326;28;20040;-70
2022/09/28 13:13:38;;;;;;;1.40;0.45;;;15.50;78.50;;;;;;5086732;28;20078;-69
2022/09/28 13:16:28;;;;;;;2.90;0.77;;;15.70;75.60;;;;;;5080587;28;20028;-69
2022/09/28 13:18:56;;;;;;;;;;;15.60;73.00;;;;;;5086435;28;20110;-70
2022/09/28 13:21:40;;;;;;;2.65;0.70;;;15.30;76.50;;;;;;5075285;28;19962;-69
2022/09/28 13:24:11;;;;;;;2.20;0.60;;;15.10;77.20;;;;;;5080812;28;20040;-70
2022/09/28 13:26:42;;;;;;;2.25;0.65;;;14.80;77.90;;;;;;5079145;28;20041;-69
2022/09/28 13:29:13;;;;;;;1.85;0.70;;;14.70;78.50;;;;;;5080017;28;20027;-69